Time,TemperatureF,DewpointF,PressureIn,WindDirection,WindDirectionDegrees,WindSpeedMPH,WindSpeedGustMPH,Humidity,HourlyPrecipIn,Conditions,Clouds,dailyrainin,SolarRadiationWatts/m^2,SoftwareType,DateUTC
2013-04-27 00:13:00,65.8,60.0,30.19,NE,43,0.0,3.0,80,0.00,,,0.00,0,weatherlink.com 1.10,2013-04-27 04:13:00,
2013-04-27 00:28:00,65.6,60.0,30.18,NE,43,0.0,1.0,81,0.00,,,0.00,0,weatherlink.com 1.10,2013-04-27 04:28:00,
2013-04-27 00:43:00,65.5,60.0,30.18,NE,43,0.0,0.0,81,0.00,,,0.00,0,weatherlink.com 1.10,2013-04-27 04:43:00,
2013-04-27 00:58:00,65.3,60.0,30.17,NE,43,0.0,0.0,82,0.00,,,0.00,0,weatherlink.com 1.10,2013-04-27 04:58:00,
2013-04-27 01:13:00,65.0,60.0,30.16,NE,43,0.0,0.0,83,0.00,,,0.00,0,weatherlink.com 1.10,2013-04-27 05:13:00,
2013-04-27 01:28:00,64.7,59.0,30.16,NE,43,0.0,0.0,83,0.00,,,0.00,0,weatherlink.com 1.10,2013-04-27 05:28:00,
2013-04-27 01:43:00,64.2,59.0,30.16,NE,43,0.0,0.0,84,0.00,,,0.00,0,weatherlink.com 1.10,2013-04-27 05:43:00,
2013-04-27 01:58:00,63.7,59.0,30.15,NE,43,0.0,0.0,84,0.00,,,0.00,0,weatherlink.com 1.10,2013-04-27 05:58:00,
2013-04-27 02:13:00,63.2,59.0,30.15,NE,43,0.0,0.0,85,0.00,,,0.00,0,weatherlink.com 1.10,2013-04-27 06:13:00,
2013-04-27 02:28:00,62.6,58.0,30.15,NE,43,0.0,0.0,85,0.00,,,0.00,0,weatherlink.com 1.10,2013-04-27 06:28:00,
2013-04-27 02:45:00,62.4,58.0,30.14,NE,43,0.0,0.0,86,0.00,,,0.00,0,weatherlink.com 1.10,2013-04-27 06:45:00,
2013-04-27 02:58:00,62.1,58.0,30.14,NE,43,0.0,0.0,87,0.00,,,0.00,0,weatherlink.com 1.10,2013-04-27 06:58:00,
2013-04-27 03:15:00,61.6,58.0,30.14,NE,43,0.0,0.0,87,0.00,,,0.00,0,weatherlink.com 1.10,2013-04-27 07:15:00,
2013-04-27 03:30:00,61.2,57.0,30.15,NE,43,0.0,0.0,87,0.00,,,0.00,0,weatherlink.com 1.10,2013-04-27 07:30:00,
2013-04-27 03:45:00,60.7,57.0,30.15,NE,43,0.0,0.0,88,0.00,,,0.00,0,weatherlink.com 1.10,2013-04-27 07:45:00,
2013-04-27 04:00:00,60.5,57.0,30.15,NE,43,0.0,0.0,88,0.00,,,0.00,0,weatherlink.com 1.10,2013-04-27 08:00:00,
2013-04-27 04:15:00,60.4,57.0,30.15,NE,43,0.0,0.0,88,0.00,,,0.00,0,weatherlink.com 1.10,2013-04-27 08:15:00,
2013-04-27 04:30:00,60.4,57.0,30.15,NE,43,0.0,0.0,89,0.00,,,0.00,0,weatherlink.com 1.10,2013-04-27 08:30:00,
2013-04-27 04:45:00,60.2,57.0,30.15,NE,43,0.0,0.0,90,0.00,,,0.00,0,weatherlink.com 1.10,2013-04-27 08:45:00,
2013-04-27 05:00:00,60.1,57.0,30.15,NE,43,0.0,0.0,90,0.00,,,0.00,0,weatherlink.com 1.10,2013-04-27 09:00:00,
2013-04-27 05:15:00,60.5,58.0,30.15,NE,43,0.0,0.0,91,0.00,,,0.00,0,weatherlink.com 1.10,2013-04-27 09:15:00,
2013-04-27 05:30:00,61.0,59.0,30.15,NE,43,0.0,0.0,92,0.00,,,0.00,0,weatherlink.com 1.10,2013-04-27 09:30:00,
2013-04-27 05:45:00,61.2,59.0,30.14,NE,43,0.0,0.0,92,0.00,,,0.00,0,weatherlink.com 1.10,2013-04-27 09:45:00,
2013-04-27 06:00:00,61.2,59.0,30.14,NE,43,0.0,0.0,92,0.00,,,0.00,0,weatherlink.com 1.10,2013-04-27 10:00:00,
2013-04-27 06:15:00,61.2,59.0,30.15,NE,43,0.0,0.0,92,0.00,,,0.00,0,weatherlink.com 1.10,2013-04-27 10:15:00,
2013-04-27 06:30:00,61.3,59.0,30.15,NE,43,0.0,0.0,93,0.00,,,0.00,0,weatherlink.com 1.10,2013-04-27 10:30:00,
2013-04-27 06:46:00,61.5,60.0,30.15,NE,43,0.0,0.0,93,0.00,,,0.00,5,weatherlink.com 1.10,2013-04-27 10:46:00,
2013-04-27 07:01:00,62.4,61.0,30.15,NE,43,0.0,3.0,94,0.00,,,0.00,18,weatherlink.com 1.10,2013-04-27 11:01:00,
2013-04-27 07:17:00,62.9,61.0,30.15,NE,43,0.0,3.0,94,0.00,,,0.00,35,weatherlink.com 1.10,2013-04-27 11:17:00,
2013-04-27 07:31:00,63.5,62.0,30.16,NE,44,0.0,3.0,94,0.00,,,0.00,76,weatherlink.com 1.10,2013-04-27 11:31:00,
2013-04-27 07:46:00,64.2,63.0,30.16,NE,39,0.0,4.0,94,0.00,,,0.00,107,weatherlink.com 1.10,2013-04-27 11:46:00,
2013-04-27 08:02:00,65.0,63.0,30.16,NE,46,0.0,5.0,94,0.00,,,0.00,156,weatherlink.com 1.10,2013-04-27 12:02:00,
2013-04-27 08:16:00,66.1,64.0,30.16,ENE,57,0.0,4.0,92,0.00,,,0.00,223,weatherlink.com 1.10,2013-04-27 12:16:00,
2013-04-27 08:31:00,67.6,64.0,30.16,ENE,78,0.0,5.0,89,0.00,,,0.00,271,weatherlink.com 1.10,2013-04-27 12:31:00,
2013-04-27 08:46:00,69.6,64.0,30.17,NE,38,2.0,5.0,83,0.00,,,0.00,325,weatherlink.com 1.10,2013-04-27 12:46:00,
2013-04-27 09:01:00,71.3,63.0,30.17,NE,41,0.0,7.0,76,0.00,,,0.00,378,weatherlink.com 1.10,2013-04-27 13:01:00,
2013-04-27 09:16:00,73.2,63.0,30.17,ESE,103,0.0,3.0,70,0.00,,,0.00,417,weatherlink.com 1.10,2013-04-27 13:16:00,
2013-04-27 09:31:00,74.6,62.0,30.17,East,91,0.0,7.0,65,0.00,,,0.00,482,weatherlink.com 1.10,2013-04-27 13:31:00,
2013-04-27 10:02:00,76.3,62.0,30.18,ENE,67,0.0,9.0,61,0.00,,,0.00,580,weatherlink.com 1.10,2013-04-27 14:02:00,
2013-04-27 10:19:00,76.8,62.0,30.18,SE,142,3.0,10.0,60,0.00,,,0.00,654,weatherlink.com 1.10,2013-04-27 14:19:00,
2013-04-27 10:34:00,77.0,61.0,30.18,East,88,5.0,11.0,58,0.00,,,0.00,747,weatherlink.com 1.10,2013-04-27 14:34:00,
2013-04-27 10:49:00,77.2,61.0,30.18,ENE,62,0.0,8.0,58,0.00,,,0.00,865,weatherlink.com 1.10,2013-04-27 14:49:00,
2013-04-27 11:04:00,78.3,61.0,30.18,East,94,0.0,7.0,56,0.00,,,0.00,900,weatherlink.com 1.10,2013-04-27 15:04:00,
2013-04-27 11:19:00,78.5,59.0,30.18,East,94,2.0,13.0,52,0.00,,,0.00,387,weatherlink.com 1.10,2013-04-27 15:19:00,
2013-04-27 11:34:00,77.6,58.0,30.18,NE,51,4.0,10.0,52,0.00,,,0.00,970,weatherlink.com 1.10,2013-04-27 15:34:00,
2013-04-27 11:49:00,77.7,59.0,30.18,East,100,6.0,11.0,52,0.00,,,0.00,234,weatherlink.com 1.10,2013-04-27 15:49:00,
2013-04-27 12:04:00,77.2,59.0,30.18,ESE,111,0.0,10.0,54,0.00,,,0.00,334,weatherlink.com 1.10,2013-04-27 16:04:00,
2013-04-27 12:19:00,78.3,58.0,30.17,East,96,0.0,10.0,50,0.00,,,0.00,921,weatherlink.com 1.10,2013-04-27 16:19:00,
2013-04-27 12:34:00,78.6,59.0,30.16,NE,51,1.0,10.0,51,0.00,,,0.00,204,weatherlink.com 1.10,2013-04-27 16:34:00,
2013-04-27 12:49:00,79.6,58.0,30.15,East,85,2.0,10.0,47,0.00,,,0.00,962,weatherlink.com 1.10,2013-04-27 16:49:00,
2013-04-27 13:04:00,79.2,58.0,30.15,NE,38,0.0,7.0,48,0.00,,,0.00,1002,weatherlink.com 1.10,2013-04-27 17:04:00,
2013-04-27 13:19:00,80.1,56.0,30.15,ESE,117,5.0,10.0,44,0.00,,,0.00,206,weatherlink.com 1.10,2013-04-27 17:19:00,
2013-04-27 13:34:00,80.3,58.0,30.14,ESE,103,1.0,7.0,47,0.00,,,0.00,1044,weatherlink.com 1.10,2013-04-27 17:34:00,
2013-04-27 13:49:00,80.3,57.0,30.14,NE,47,0.0,7.0,45,0.00,,,0.00,454,weatherlink.com 1.10,2013-04-27 17:49:00,
2013-04-27 14:04:00,79.8,57.0,30.13,NNW,336,1.0,8.0,46,0.00,,,0.00,250,weatherlink.com 1.10,2013-04-27 18:04:00,
2013-04-27 14:19:00,79.0,59.0,30.13,SE,132,1.0,7.0,50,0.00,,,0.00,1025,weatherlink.com 1.10,2013-04-27 18:19:00,
2013-04-27 14:34:00,79.8,59.0,30.13,SE,127,4.0,5.0,49,0.00,,,0.00,953,weatherlink.com 1.10,2013-04-27 18:34:00,
2013-04-27 14:49:00,80.5,58.0,30.13,East,90,7.0,7.0,46,0.00,,,0.00,942,weatherlink.com 1.10,2013-04-27 18:49:00,
2013-04-27 15:04:00,81.4,59.0,30.12,ESE,113,4.0,5.0,46,0.00,,,0.00,954,weatherlink.com 1.10,2013-04-27 19:04:00,
2013-04-27 15:19:00,81.2,57.0,30.12,East,98,0.0,6.0,44,0.00,,,0.00,367,weatherlink.com 1.10,2013-04-27 19:19:00,
2013-04-27 15:34:00,80.5,56.0,30.12,NE,41,0.0,7.0,43,0.00,,,0.00,206,weatherlink.com 1.10,2013-04-27 19:34:00,
2013-04-27 15:49:00,80.1,57.0,30.11,ESE,119,0.0,11.0,46,0.00,,,0.00,814,weatherlink.com 1.10,2013-04-27 19:49:00,
2013-04-27 16:04:00,79.9,53.0,30.10,ESE,107,1.0,9.0,40,0.00,,,0.00,490,weatherlink.com 1.10,2013-04-27 20:04:00,
2013-04-27 16:20:00,80.5,55.0,30.10,East,98,0.0,9.0,41,0.00,,,0.00,726,weatherlink.com 1.10,2013-04-27 20:20:00,
2013-04-27 16:35:00,80.7,54.0,30.10,East,96,3.0,5.0,40,0.00,,,0.00,722,weatherlink.com 1.10,2013-04-27 20:35:00,
2013-04-27 16:50:00,79.4,56.0,30.10,East,96,5.0,7.0,45,0.00,,,0.00,114,weatherlink.com 1.10,2013-04-27 20:50:00,
2013-04-27 17:06:00,78.8,57.0,30.09,East,88,5.0,8.0,47,0.00,,,0.00,526,weatherlink.com 1.10,2013-04-27 21:06:00,
2013-04-27 17:20:00,78.6,56.0,30.10,East,93,0.0,8.0,46,0.00,,,0.00,476,weatherlink.com 1.10,2013-04-27 21:20:00,
2013-04-27 17:35:00,78.3,56.0,30.09,ESE,113,0.0,9.0,46,0.00,,,0.00,429,weatherlink.com 1.10,2013-04-27 21:35:00,
2013-04-27 17:50:00,78.1,56.0,30.09,NE,42,0.0,5.0,46,0.00,,,0.00,380,weatherlink.com 1.10,2013-04-27 21:50:00,
2013-04-27 18:05:00,77.7,55.0,30.09,ESE,111,4.0,8.0,45,0.00,,,0.00,329,weatherlink.com 1.10,2013-04-27 22:05:00,
2013-04-27 18:20:00,77.4,55.0,30.09,ESE,123,4.0,8.0,46,0.00,,,0.00,271,weatherlink.com 1.10,2013-04-27 22:20:00,
2013-04-27 18:35:00,76.7,55.0,30.09,East,96,1.0,7.0,47,0.00,,,0.00,225,weatherlink.com 1.10,2013-04-27 22:35:00,
2013-04-27 18:51:00,76.1,55.0,30.09,ESE,103,0.0,5.0,49,0.00,,,0.00,172,weatherlink.com 1.10,2013-04-27 22:51:00,
2013-04-27 19:05:00,75.6,56.0,30.09,East,100,0.0,7.0,50,0.00,,,0.00,123,weatherlink.com 1.10,2013-04-27 23:05:00,
2013-04-27 19:20:00,75.3,56.0,30.09,ESE,118,0.0,7.0,52,0.00,,,0.00,69,weatherlink.com 1.10,2013-04-27 23:20:00,
2013-04-27 19:36:00,74.7,57.0,30.09,ESE,121,0.0,5.0,54,0.00,,,0.00,21,weatherlink.com 1.10,2013-04-27 23:36:00,
2013-04-27 19:51:00,73.9,58.0,30.09,East,92,0.0,7.0,58,0.00,,,0.00,9,weatherlink.com 1.10,2013-04-27 23:51:00,
2013-04-27 20:06:00,73.0,59.0,30.09,NE,46,4.0,6.0,61,0.00,,,0.00,0,weatherlink.com 1.10,2013-04-28 00:06:00,
2013-04-27 20:20:00,72.3,58.0,30.09,ENE,68,0.0,3.0,62,0.00,,,0.00,0,weatherlink.com 1.10,2013-04-28 00:20:00,
2013-04-27 20:36:00,71.6,59.0,30.09,ENE,64,0.0,2.0,65,0.00,,,0.00,0,weatherlink.com 1.10,2013-04-28 00:36:00,
2013-04-27 20:51:00,70.9,60.0,30.09,ESE,103,3.0,5.0,68,0.00,,,0.00,0,weatherlink.com 1.10,2013-04-28 00:51:00,
2013-04-27 21:07:00,70.6,60.0,30.09,NE,54,0.0,3.0,70,0.00,,,0.00,0,weatherlink.com 1.10,2013-04-28 01:07:00,
2013-04-27 21:22:00,70.1,61.0,30.09,ENE,59,0.0,4.0,72,0.00,,,0.00,0,weatherlink.com 1.10,2013-04-28 01:22:00,
2013-04-27 21:37:00,69.8,62.0,30.10,East,86,0.0,5.0,75,0.00,,,0.00,0,weatherlink.com 1.10,2013-04-28 01:37:00,
2013-04-27 21:52:00,69.4,62.0,30.10,ENE,64,0.0,4.0,77,0.00,,,0.00,0,weatherlink.com 1.10,2013-04-28 01:52:00,
2013-04-27 22:07:00,68.9,62.0,30.10,ENE,62,0.0,2.0,78,0.00,,,0.00,0,weatherlink.com 1.10,2013-04-28 02:07:00,
2013-04-27 22:22:00,68.6,62.0,30.10,ENE,62,0.0,2.0,79,0.00,,,0.00,0,weatherlink.com 1.10,2013-04-28 02:22:00,
2013-04-27 22:37:00,68.3,62.0,30.10,ENE,62,0.0,0.0,80,0.00,,,0.00,0,weatherlink.com 1.10,2013-04-28 02:37:00,
2013-04-27 22:52:00,67.9,62.0,30.10,ENE,62,0.0,1.0,80,0.00,,,0.00,0,weatherlink.com 1.10,2013-04-28 02:52:00,
2013-04-27 23:07:00,67.6,62.0,30.10,ENE,62,0.0,2.0,81,0.00,,,0.00,0,weatherlink.com 1.10,2013-04-28 03:07:00,
2013-04-27 23:22:00,67.3,62.0,30.10,ENE,62,0.0,0.0,82,0.00,,,0.00,0,weatherlink.com 1.10,2013-04-28 03:22:00,
2013-04-27 23:37:00,67.1,62.0,30.10,ENE,62,0.0,0.0,83,0.00,,,0.00,0,weatherlink.com 1.10,2013-04-28 03:37:00,
2013-04-27 23:52:00,66.9,62.0,30.10,ENE,62,0.0,0.0,83,0.00,,,0.00,0,weatherlink.com 1.10,2013-04-28 03:52:00,